createdAt,value
2022-08-14T00:00:13.703Z,997.80
2022-08-14T00:01:12.632Z,997.81
2022-08-14T00:02:12.745Z,997.78
2022-08-14T00:03:12.621Z,997.76
2022-08-14T00:04:32.283Z,997.78
2022-08-14T00:05:13.573Z,997.76
2022-08-14T00:06:13.858Z,997.78
2022-08-14T00:07:13.965Z,997.75
2022-08-14T00:08:14.314Z,997.78
2022-08-14T00:09:12.582Z,997.76
2022-08-14T00:10:52.998Z,997.72
2022-08-14T00:11:13.646Z,997.74
2022-08-14T00:12:24.076Z,997.72
2022-08-14T00:13:13.563Z,997.69
2022-08-14T00:14:17.303Z,997.70
2022-08-14T00:15:15.048Z,997.71
2022-08-14T00:16:12.443Z,997.68
2022-08-14T00:17:13.424Z,997.69
2022-08-14T00:18:14.525Z,997.67
2022-08-14T00:19:19.197Z,997.69
2022-08-14T00:20:13.393Z,997.65
2022-08-14T00:21:12.374Z,997.63
2022-08-14T00:22:12.353Z,997.63
2022-08-14T00:23:17.213Z,997.58
2022-08-14T00:24:12.338Z,997.58
2022-08-14T00:25:12.309Z,997.56
2022-08-14T00:26:21.478Z,997.56
2022-08-14T00:27:13.287Z,997.53
2022-08-14T00:28:14.991Z,997.52
2022-08-14T00:29:12.270Z,997.54
2022-08-14T00:30:14.309Z,997.56
2022-08-14T00:31:13.236Z,997.52
2022-08-14T00:32:55.643Z,997.50
2022-08-14T00:33:16.580Z,997.54
2022-08-14T00:34:37.870Z,997.52
2022-08-14T00:35:13.168Z,997.51
2022-08-14T00:36:35.797Z,997.48
2022-08-14T00:37:13.149Z,997.49
2022-08-14T00:38:12.137Z,997.47
2022-08-14T00:39:12.139Z,997.47
2022-08-14T00:40:27.420Z,997.48
2022-08-14T00:41:13.107Z,997.47
2022-08-14T00:42:21.188Z,997.45
2022-08-14T00:43:13.223Z,997.47
2022-08-14T00:44:12.076Z,997.46
2022-08-14T00:45:12.039Z,997.46
2022-08-14T00:46:23.457Z,997.44
2022-08-14T00:47:13.009Z,997.45
2022-08-14T00:48:12.007Z,997.44
2022-08-14T00:49:14.625Z,997.42
2022-08-14T00:50:17.743Z,997.38
2022-08-14T00:51:12.959Z,997.39
2022-08-14T00:52:14.129Z,997.39
2022-08-14T00:53:12.930Z,997.40
2022-08-14T00:54:21.301Z,997.37
2022-08-14T00:55:13.931Z,997.33
2022-08-14T00:56:15.592Z,997.35
2022-08-14T00:57:11.882Z,997.32
2022-08-14T00:58:11.872Z,997.34
2022-08-14T00:59:11.870Z,997.33
2022-08-14T01:00:26.747Z,997.34
2022-08-14T01:01:12.894Z,997.36
2022-08-14T01:02:11.848Z,997.31
2022-08-14T01:03:11.812Z,997.32
2022-08-14T01:04:37.661Z,997.32
2022-08-14T01:05:12.781Z,997.33
2022-08-14T01:06:11.781Z,997.30
2022-08-14T01:07:11.751Z,997.29
2022-08-14T01:08:20.684Z,997.28
2022-08-14T01:09:12.732Z,997.25
2022-08-14T01:10:11.702Z,997.25
2022-08-14T01:11:11.709Z,997.23
2022-08-14T01:12:12.683Z,997.20
2022-08-14T01:13:12.667Z,997.16
2022-08-14T01:14:25.353Z,997.16
2022-08-14T01:15:14.773Z,997.17
2022-08-14T01:16:14.767Z,997.16
2022-08-14T01:17:11.604Z,997.15
2022-08-14T01:18:11.605Z,997.15
2022-08-14T01:19:11.921Z,997.11
2022-08-14T01:20:27.754Z,997.12
2022-08-14T01:21:12.551Z,997.14
2022-08-14T01:22:12.531Z,997.08
2022-08-14T01:23:15.813Z,997.09
2022-08-14T01:24:12.535Z,997.06
2022-08-14T01:25:11.506Z,997.02
2022-08-14T01:26:11.849Z,997.03
2022-08-14T01:27:12.497Z,997.03
2022-08-14T01:28:11.501Z,996.96
2022-08-14T01:29:16.229Z,997.00
2022-08-14T01:30:12.435Z,997.02
2022-08-14T01:31:11.425Z,997.01
2022-08-14T01:32:11.418Z,997.00
2022-08-14T01:33:11.396Z,997.02
2022-08-14T01:35:17.958Z,997.00
2022-08-14T01:35:18.702Z,997.00
2022-08-14T01:36:23.073Z,996.95
2022-08-14T01:37:12.337Z,996.94
2022-08-14T01:38:11.335Z,996.97
2022-08-14T01:39:12.845Z,996.96
2022-08-14T01:40:11.329Z,997.00
2022-08-14T01:41:14.824Z,996.93
2022-08-14T01:42:11.273Z,996.92
2022-08-14T01:43:12.277Z,996.96
2022-08-14T01:44:32.969Z,996.95
2022-08-14T01:45:12.230Z,996.94
2022-08-14T01:46:24.616Z,996.96
2022-08-14T01:47:16.515Z,996.91
2022-08-14T01:48:13.577Z,996.90
2022-08-14T01:49:11.171Z,996.86
2022-08-14T01:50:11.201Z,996.83
2022-08-14T01:51:18.796Z,996.81
2022-08-14T01:52:13.389Z,996.80
2022-08-14T01:53:12.118Z,996.79
2022-08-14T01:54:11.115Z,996.77
2022-08-14T01:55:11.108Z,996.75
2022-08-14T01:56:12.206Z,996.69
2022-08-14T01:57:12.088Z,996.71
2022-08-14T01:58:19.666Z,996.69
2022-08-14T01:59:14.572Z,996.67
2022-08-14T02:00:12.037Z,996.67
2022-08-14T02:01:11.071Z,996.67
2022-08-14T02:02:10.999Z,996.63
2022-08-14T02:03:11.990Z,996.61
2022-08-14T02:04:20.516Z,996.60
2022-08-14T02:05:11.979Z,996.59
2022-08-14T02:06:32.127Z,996.52
2022-08-14T02:07:15.603Z,996.50
2022-08-14T02:08:10.927Z,996.48
2022-08-14T02:09:19.179Z,996.43
2022-08-14T02:10:12.921Z,996.41
2022-08-14T02:11:10.901Z,996.36
2022-08-14T02:12:10.898Z,996.35
2022-08-14T02:13:11.851Z,996.35
2022-08-14T02:14:10.840Z,996.32
2022-08-14T02:15:10.852Z,996.26
2022-08-14T02:16:21.834Z,996.27
2022-08-14T02:17:11.801Z,996.22
2022-08-14T02:18:11.817Z,996.20
2022-08-14T02:19:10.772Z,996.18
2022-08-14T02:20:10.766Z,996.15
2022-08-14T02:21:10.752Z,996.10
2022-08-14T02:22:10.732Z,996.07
2022-08-14T02:23:11.481Z,996.08
2022-08-14T02:24:40.406Z,996.10
2022-08-14T02:25:11.752Z,996.07
2022-08-14T02:26:24.313Z,996.08
2022-08-14T02:28:23.171Z,996.08
2022-08-14T02:28:24.027Z,996.06
2022-08-14T02:29:11.642Z,996.08
2022-08-14T02:30:10.660Z,996.08
2022-08-14T02:31:10.623Z,996.09
2022-08-14T02:32:10.601Z,996.10
2022-08-14T02:33:11.593Z,996.01
2022-08-14T02:34:19.975Z,995.98
2022-08-14T02:35:11.606Z,996.02
2022-08-14T02:37:03.510Z,996.04
2022-08-14T02:37:11.533Z,996.02
2022-08-14T02:38:11.554Z,996.03
2022-08-14T02:39:10.512Z,996.01
2022-08-14T02:40:10.504Z,996.05
2022-08-14T02:41:11.080Z,996.08
2022-08-14T02:42:12.743Z,996.07
2022-08-14T02:43:10.507Z,996.06
2022-08-14T02:44:10.442Z,996.06
2022-08-14T02:45:10.443Z,996.05
2022-08-14T02:46:10.407Z,996.01
2022-08-14T02:47:15.000Z,996.03
2022-08-14T02:49:02.759Z,996.06
2022-08-14T02:49:11.375Z,996.10
2022-08-14T02:50:10.375Z,996.08
2022-08-14T02:51:10.358Z,996.12
2022-08-14T02:52:56.049Z,996.14
2022-08-14T02:53:11.325Z,996.17
2022-08-14T02:54:13.078Z,996.17
2022-08-14T02:55:11.315Z,996.19
2022-08-14T02:56:30.383Z,996.21
2022-08-14T02:57:16.255Z,996.23
2022-08-14T02:58:11.246Z,996.19
2022-08-14T02:59:11.285Z,996.18
2022-08-14T03:00:10.577Z,996.19
2022-08-14T03:01:10.337Z,996.21
2022-08-14T03:02:33.562Z,996.18
2022-08-14T03:03:11.187Z,996.19
2022-08-14T03:04:10.562Z,996.21
2022-08-14T03:05:10.186Z,996.23
2022-08-14T03:06:10.137Z,996.22
2022-08-14T03:07:10.125Z,996.17
2022-08-14T03:08:11.104Z,996.22
2022-08-14T03:09:10.107Z,996.20
2022-08-14T03:10:26.732Z,996.18
2022-08-14T03:11:11.077Z,996.20
2022-08-14T03:12:10.058Z,996.17
2022-08-14T03:13:19.443Z,996.16
2022-08-14T03:14:11.027Z,996.12
2022-08-14T03:15:14.053Z,996.12
2022-08-14T03:16:19.784Z,996.14
2022-08-14T03:17:11.009Z,996.13
2022-08-14T03:18:09.979Z,996.16
2022-08-14T03:19:09.978Z,996.16
2022-08-14T03:20:11.076Z,996.21
2022-08-14T03:21:09.945Z,996.21
2022-08-14T03:22:17.692Z,996.23
2022-08-14T03:23:10.918Z,996.19
2022-08-14T03:24:21.462Z,996.19
2022-08-14T03:25:10.935Z,996.17
2022-08-14T03:26:13.114Z,996.16
2022-08-14T03:27:10.869Z,996.13
2022-08-14T03:28:14.812Z,996.18
2022-08-14T03:29:14.090Z,996.18
2022-08-14T03:30:14.525Z,996.21
2022-08-14T03:31:13.022Z,996.20
2022-08-14T03:32:09.790Z,996.21
2022-08-14T03:33:10.647Z,996.22
2022-08-14T03:34:10.063Z,996.22
2022-08-14T03:35:09.770Z,996.22
2022-08-14T03:37:29.018Z,996.21
2022-08-14T03:37:51.459Z,996.23
2022-08-14T03:39:14.764Z,996.18
2022-08-14T03:39:21.570Z,996.18
2022-08-14T03:40:11.255Z,996.17
2022-08-14T03:41:09.678Z,996.11
2022-08-14T03:42:19.461Z,996.12
2022-08-14T03:43:10.641Z,996.07
2022-08-14T03:45:19.128Z,996.07
2022-08-14T03:45:27.670Z,996.06
2022-08-14T03:46:51.780Z,996.07
2022-08-14T03:47:11.822Z,996.06
2022-08-14T03:48:11.107Z,996.08
2022-08-14T03:49:10.563Z,996.08
2022-08-14T03:50:09.560Z,996.10
2022-08-14T03:51:09.561Z,996.12
2022-08-14T03:52:37.561Z,996.11
2022-08-14T03:53:10.522Z,996.12
2022-08-14T03:54:09.491Z,996.08
2022-08-14T03:55:10.491Z,996.10
2022-08-14T03:56:09.463Z,996.07
2022-08-14T03:57:09.725Z,996.10
2022-08-14T03:58:09.432Z,996.04
2022-08-14T03:59:10.372Z,996.04
2022-08-14T04:00:13.607Z,996.01
2022-08-14T04:01:10.498Z,996.02
2022-08-14T04:02:33.036Z,996.01
2022-08-14T04:03:10.379Z,996.04
2022-08-14T04:04:09.350Z,996.00
2022-08-14T04:05:11.777Z,995.98
2022-08-14T04:06:09.351Z,996.00
2022-08-14T04:07:09.324Z,995.94
2022-08-14T04:08:22.628Z,995.96
2022-08-14T04:09:10.284Z,995.98
2022-08-14T04:10:09.301Z,995.95
2022-08-14T04:11:10.449Z,995.94
2022-08-14T04:12:13.554Z,995.91
2022-08-14T04:13:09.236Z,995.87
2022-08-14T04:14:09.215Z,995.85
2022-08-14T04:15:10.203Z,995.84
2022-08-14T04:16:12.269Z,995.84
2022-08-14T04:17:10.185Z,995.80
2022-08-14T04:18:09.205Z,995.84
2022-08-14T04:19:09.152Z,995.77
2022-08-14T04:20:09.923Z,995.77
2022-08-14T04:21:09.136Z,995.76
2022-08-14T04:22:09.118Z,995.78
2022-08-14T04:23:09.093Z,995.76
2022-08-14T04:24:10.075Z,995.80
2022-08-14T04:25:09.075Z,995.84
2022-08-14T04:26:14.874Z,995.84
2022-08-14T04:27:10.065Z,995.83
2022-08-14T04:28:09.025Z,995.86
2022-08-14T04:29:14.495Z,995.86
2022-08-14T04:30:09.976Z,995.89
2022-08-14T04:31:10.006Z,995.86
2022-08-14T04:32:57.282Z,995.86
2022-08-14T04:33:18.429Z,995.86
2022-08-14T04:34:17.068Z,995.85
2022-08-14T04:35:11.097Z,995.81
2022-08-14T04:36:09.299Z,995.77
2022-08-14T04:37:10.652Z,995.78
2022-08-14T04:38:36.773Z,995.78
2022-08-14T04:39:09.876Z,995.74
2022-08-14T04:40:08.973Z,995.74
2022-08-14T04:41:08.838Z,995.73
2022-08-14T04:42:14.003Z,995.72
2022-08-14T04:43:14.243Z,995.69
2022-08-14T04:44:08.799Z,995.71
2022-08-14T04:45:09.789Z,995.68
2022-08-14T04:46:08.790Z,995.67
2022-08-14T04:47:08.769Z,995.63
2022-08-14T04:48:09.975Z,995.67
2022-08-14T04:49:08.741Z,995.65
2022-08-14T04:50:09.743Z,995.65
2022-08-14T04:51:08.720Z,995.60
2022-08-14T04:52:18.945Z,995.64
2022-08-14T04:53:09.687Z,995.64
2022-08-14T04:54:08.659Z,995.63
2022-08-14T04:55:08.680Z,995.64
2022-08-14T04:56:30.155Z,995.62
2022-08-14T04:57:09.640Z,995.62
2022-08-14T04:58:08.708Z,995.62
2022-08-14T04:59:11.155Z,995.65
2022-08-14T05:00:08.578Z,995.66
2022-08-14T05:01:12.688Z,995.70
2022-08-14T05:02:09.683Z,995.65
2022-08-14T05:03:08.551Z,995.67
2022-08-14T05:04:08.784Z,995.64
2022-08-14T05:05:09.555Z,995.66
2022-08-14T05:06:37.739Z,995.67
2022-08-14T05:07:09.522Z,995.69
2022-08-14T05:08:09.548Z,995.70
2022-08-14T05:09:14.458Z,995.69
2022-08-14T05:10:13.336Z,995.70
2022-08-14T05:11:12.023Z,995.72
2022-08-14T05:13:13.309Z,995.76
2022-08-14T05:13:13.386Z,995.73
2022-08-14T05:14:34.228Z,995.74
2022-08-14T05:15:09.461Z,995.71
2022-08-14T05:16:08.370Z,995.72
2022-08-14T05:17:08.362Z,995.69
2022-08-14T05:18:17.344Z,995.69
2022-08-14T05:19:26.900Z,995.69
2022-08-14T05:21:55.567Z,995.66
2022-08-14T05:21:57.306Z,995.67
2022-08-14T05:22:15.715Z,995.72
2022-08-14T05:23:11.139Z,995.73
2022-08-14T05:24:08.264Z,995.71
2022-08-14T05:25:09.264Z,995.75
2022-08-14T05:26:08.233Z,995.75
2022-08-14T05:27:08.268Z,995.80
2022-08-14T05:28:12.365Z,995.82
2022-08-14T05:29:11.635Z,995.83
2022-08-14T05:30:08.438Z,995.82
2022-08-14T05:31:08.164Z,995.81
2022-08-14T05:32:08.154Z,995.83
2022-08-14T05:33:08.133Z,995.80
2022-08-14T05:34:08.132Z,995.83
2022-08-14T05:35:08.114Z,995.81
2022-08-14T05:36:08.084Z,995.81
2022-08-14T05:37:09.091Z,995.81
2022-08-14T05:38:10.695Z,995.79
2022-08-14T05:39:08.227Z,995.77
2022-08-14T05:40:08.025Z,995.74
2022-08-14T05:41:08.702Z,995.72
2022-08-14T05:42:10.059Z,995.69
2022-08-14T05:43:08.993Z,995.70
2022-08-14T05:44:07.985Z,995.67
2022-08-14T05:45:11.313Z,995.66
2022-08-14T05:46:08.955Z,995.63
2022-08-14T05:47:07.977Z,995.63
2022-08-14T05:48:07.933Z,995.63
2022-08-14T05:49:07.937Z,995.64
2022-08-14T05:50:07.896Z,995.63
2022-08-14T05:51:08.886Z,995.65
2022-08-14T05:52:09.955Z,995.63
2022-08-14T05:53:07.887Z,995.66
2022-08-14T05:54:12.695Z,995.66
2022-08-14T05:55:08.826Z,995.65
2022-08-14T05:56:07.817Z,995.60
2022-08-14T05:57:07.820Z,995.62
2022-08-14T05:58:07.787Z,995.58
2022-08-14T05:59:07.767Z,995.61
2022-08-14T06:00:07.778Z,995.60
2022-08-14T06:01:07.853Z,995.59
2022-08-14T06:02:07.748Z,995.57
2022-08-14T06:03:07.719Z,995.57
2022-08-14T06:04:07.711Z,995.62
2022-08-14T06:05:07.699Z,995.56
2022-08-14T06:06:07.706Z,995.59
2022-08-14T06:07:07.690Z,995.63
2022-08-14T06:08:08.813Z,995.60
2022-08-14T06:09:09.897Z,995.58
2022-08-14T06:10:07.629Z,995.57
2022-08-14T06:11:07.634Z,995.60
2022-08-14T06:12:07.619Z,995.56
2022-08-14T06:13:07.833Z,995.55
2022-08-14T06:14:12.326Z,995.53
2022-08-14T06:15:08.559Z,995.51
2022-08-14T06:16:07.549Z,995.54
2022-08-14T06:17:07.564Z,995.50
2022-08-14T06:18:07.510Z,995.52
2022-08-14T06:19:07.541Z,995.52
2022-08-14T06:20:07.494Z,995.57
2022-08-14T06:21:13.564Z,995.53
2022-08-14T06:22:08.877Z,995.53
2022-08-14T06:23:07.451Z,995.51
2022-08-14T06:24:10.630Z,995.50
2022-08-14T06:25:08.468Z,995.46
2022-08-14T06:26:07.450Z,995.44
2022-08-14T06:27:10.155Z,995.42
2022-08-14T06:28:07.380Z,995.38
2022-08-14T06:29:08.392Z,995.41
2022-08-14T06:30:07.361Z,995.43
2022-08-14T06:31:07.353Z,995.42
2022-08-14T06:32:52.543Z,995.44
2022-08-14T06:33:08.312Z,995.44
2022-08-14T06:35:09.432Z,995.44
2022-08-14T06:35:12.916Z,995.45
2022-08-14T06:36:08.282Z,995.44
2022-08-14T06:37:07.282Z,995.44
2022-08-14T06:38:07.279Z,995.43
2022-08-14T06:39:10.101Z,995.40
2022-08-14T06:40:07.289Z,995.40
2022-08-14T06:41:10.873Z,995.43
2022-08-14T06:42:07.225Z,995.39
2022-08-14T06:43:08.183Z,995.39
2022-08-14T06:44:07.172Z,995.39
2022-08-14T06:45:07.164Z,995.39
2022-08-14T06:46:07.143Z,995.37
2022-08-14T06:47:08.145Z,995.38
2022-08-14T06:48:12.937Z,995.40
2022-08-14T06:49:08.095Z,995.34
2022-08-14T06:50:07.091Z,995.34
2022-08-14T06:51:07.076Z,995.32
2022-08-14T06:52:07.115Z,995.32
2022-08-14T06:53:07.053Z,995.32
2022-08-14T06:54:08.375Z,995.31
2022-08-14T06:55:07.022Z,995.28
2022-08-14T06:56:07.016Z,995.27
2022-08-14T06:57:07.012Z,995.26
2022-08-14T06:58:06.981Z,995.23
2022-08-14T06:59:07.955Z,995.19
2022-08-14T07:00:07.952Z,995.17
2022-08-14T07:01:07.970Z,995.13
2022-08-14T07:02:06.944Z,995.12
2022-08-14T07:03:07.931Z,995.09
2022-08-14T07:04:06.905Z,995.08
2022-08-14T07:05:07.899Z,995.08
2022-08-14T07:06:21.256Z,995.05
2022-08-14T07:07:07.864Z,995.06
2022-08-14T07:08:06.847Z,995.03
2022-08-14T07:09:06.846Z,994.97
2022-08-14T07:10:06.874Z,994.98
2022-08-14T07:11:06.797Z,994.97
2022-08-14T07:12:06.806Z,994.97
2022-08-14T07:13:07.062Z,994.92
2022-08-14T07:14:06.796Z,994.93
2022-08-14T07:15:06.770Z,994.95
2022-08-14T07:16:06.745Z,994.92
2022-08-14T07:17:06.741Z,994.86
2022-08-14T07:18:08.960Z,994.85
2022-08-14T07:19:06.710Z,994.85
2022-08-14T07:20:07.400Z,994.81
2022-08-14T07:21:07.295Z,994.77
2022-08-14T07:22:06.679Z,994.78
2022-08-14T07:23:10.951Z,994.76
2022-08-14T07:24:06.628Z,994.78
2022-08-14T07:25:06.596Z,994.72
2022-08-14T07:26:06.607Z,994.68
2022-08-14T07:27:06.597Z,994.64
2022-08-14T07:28:06.588Z,994.60
2022-08-14T07:29:06.559Z,994.61
2022-08-14T07:30:06.578Z,994.62
2022-08-14T07:31:06.527Z,994.55
2022-08-14T07:32:06.538Z,994.54
2022-08-14T07:33:06.509Z,994.54
2022-08-14T07:34:06.490Z,994.55
2022-08-14T07:35:07.478Z,994.54
2022-08-14T07:36:26.342Z,994.54
2022-08-14T07:37:07.471Z,994.50
2022-08-14T07:38:06.441Z,994.47
2022-08-14T07:39:12.355Z,994.49
2022-08-14T07:40:07.501Z,994.48
2022-08-14T07:41:11.857Z,994.47
2022-08-14T07:42:07.400Z,994.41
2022-08-14T07:43:14.855Z,994.42
2022-08-14T07:44:28.808Z,994.41
2022-08-14T07:45:07.341Z,994.39
2022-08-14T07:46:06.341Z,994.36
2022-08-14T07:47:06.344Z,994.38
2022-08-14T07:48:06.311Z,994.40
2022-08-14T07:49:06.292Z,994.40
2022-08-14T07:50:06.284Z,994.41
2022-08-14T07:51:11.121Z,994.40
2022-08-14T07:52:08.074Z,994.37
2022-08-14T07:53:06.252Z,994.39
2022-08-14T07:54:11.359Z,994.46
2022-08-14T07:55:07.211Z,994.40
2022-08-14T07:56:21.363Z,994.45
2022-08-14T07:57:12.535Z,994.42
2022-08-14T07:58:07.605Z,994.48
2022-08-14T07:59:09.110Z,994.47
2022-08-14T08:00:06.143Z,994.55
2022-08-14T08:01:06.134Z,994.52
2022-08-14T08:02:06.131Z,994.52
2022-08-14T08:03:07.163Z,994.55
2022-08-14T08:04:16.487Z,994.58
2022-08-14T08:05:07.072Z,994.57
2022-08-14T08:06:10.507Z,994.56
2022-08-14T08:07:07.062Z,994.56
2022-08-14T08:08:08.242Z,994.56
2022-08-14T08:09:07.016Z,994.56
2022-08-14T08:10:06.014Z,994.55
2022-08-14T08:11:08.483Z,994.59
2022-08-14T08:12:09.347Z,994.60
2022-08-14T08:13:06.985Z,994.61
2022-08-14T08:14:05.978Z,994.64
2022-08-14T08:15:07.811Z,994.66
2022-08-14T08:16:05.956Z,994.64
2022-08-14T08:17:05.952Z,994.67
2022-08-14T08:18:05.917Z,994.68
2022-08-14T08:19:12.644Z,994.62
2022-08-14T08:20:06.966Z,994.62
2022-08-14T08:21:05.865Z,994.63
2022-08-14T08:22:05.919Z,994.65
2022-08-14T08:23:06.085Z,994.58
2022-08-14T08:24:05.826Z,994.59
2022-08-14T08:25:13.498Z,994.58
2022-08-14T08:26:06.842Z,994.55
2022-08-14T08:27:05.779Z,994.56
2022-08-14T08:28:08.285Z,994.54
2022-08-14T08:29:05.750Z,994.57
2022-08-14T08:30:05.736Z,994.56
2022-08-14T08:31:05.761Z,994.60
2022-08-14T08:32:06.055Z,994.60
2022-08-14T08:33:05.708Z,994.59
2022-08-14T08:34:05.696Z,994.64
2022-08-14T08:35:05.668Z,994.61
2022-08-14T08:36:05.659Z,994.60
2022-08-14T08:37:07.412Z,994.61
2022-08-14T08:39:14.007Z,994.59
2022-08-14T08:39:15.620Z,994.60
2022-08-14T08:40:06.675Z,994.56
2022-08-14T08:41:05.588Z,994.53
2022-08-14T08:42:06.579Z,994.52
2022-08-14T08:43:05.579Z,994.48
2022-08-14T08:44:05.834Z,994.44
2022-08-14T08:45:06.543Z,994.43
2022-08-14T08:46:06.542Z,994.41
2022-08-14T08:47:06.966Z,994.39
2022-08-14T08:48:17.859Z,994.37
2022-08-14T08:49:07.563Z,994.35
2022-08-14T08:50:23.243Z,994.37
2022-08-14T08:51:05.467Z,994.33
2022-08-14T08:52:05.451Z,994.32
2022-08-14T08:53:05.465Z,994.33
2022-08-14T08:54:05.423Z,994.32
2022-08-14T08:55:05.422Z,994.36
2022-08-14T08:56:05.461Z,994.32
2022-08-14T08:57:05.393Z,994.35
2022-08-14T08:58:05.550Z,994.31
2022-08-14T08:59:06.361Z,994.32
2022-08-14T09:00:10.073Z,994.30
2022-08-14T09:01:06.354Z,994.30
2022-08-14T09:02:05.429Z,994.30
2022-08-14T09:03:05.313Z,994.31
2022-08-14T09:04:07.559Z,994.32
2022-08-14T09:05:06.284Z,994.34
2022-08-14T09:06:23.260Z,994.33
2022-08-14T09:07:09.818Z,994.35
2022-08-14T09:08:05.247Z,994.32
2022-08-14T09:09:05.224Z,994.31
2022-08-14T09:10:05.214Z,994.27
2022-08-14T09:11:20.913Z,994.27
2022-08-14T09:12:06.265Z,994.26
2022-08-14T09:13:06.858Z,994.22
2022-08-14T09:14:05.518Z,994.20
2022-08-14T09:15:08.910Z,994.17
2022-08-14T09:16:18.856Z,994.15
2022-08-14T09:17:06.116Z,994.13
2022-08-14T09:18:05.099Z,994.12
2022-08-14T09:19:05.114Z,994.14
2022-08-14T09:20:05.249Z,994.15
2022-08-14T09:21:05.064Z,994.17
2022-08-14T09:22:35.454Z,994.16
2022-08-14T09:23:06.037Z,994.18
2022-08-14T09:24:28.020Z,994.19
2022-08-14T09:25:06.965Z,994.13
2022-08-14T09:26:21.157Z,994.14
2022-08-14T09:27:06.872Z,994.15
2022-08-14T09:28:05.025Z,994.08
2022-08-14T09:29:05.000Z,994.08
2022-08-14T09:30:31.692Z,993.98
2022-08-14T09:31:11.944Z,993.99
2022-08-14T09:32:57.690Z,993.93
2022-08-14T09:33:11.529Z,993.91
2022-08-14T09:34:19.686Z,993.89
2022-08-14T09:35:08.346Z,993.84
2022-08-14T09:36:04.870Z,993.81
2022-08-14T09:37:04.879Z,993.86
2022-08-14T09:38:04.849Z,993.83
2022-08-14T09:39:05.853Z,993.85
2022-08-14T09:40:04.844Z,993.84
2022-08-14T09:41:04.793Z,993.84
2022-08-14T09:42:21.564Z,993.81
2022-08-14T09:43:05.776Z,993.83
2022-08-14T09:44:06.419Z,993.82
2022-08-14T09:45:08.521Z,993.84
2022-08-14T09:46:04.722Z,993.84
2022-08-14T09:47:04.711Z,993.84
2022-08-14T09:48:04.742Z,993.84
2022-08-14T09:49:04.743Z,993.81
2022-08-14T09:50:04.672Z,993.81
2022-08-14T09:51:45.190Z,993.81
2022-08-14T09:52:36.457Z,993.74
2022-08-14T09:54:18.037Z,993.73
2022-08-14T09:54:36.427Z,993.70
2022-08-14T09:55:41.618Z,993.72
2022-08-14T09:56:36.395Z,993.66
2022-08-14T09:57:35.449Z,993.68
2022-08-14T09:58:35.387Z,993.70
2022-08-14T09:59:36.301Z,993.68
2022-08-14T10:00:35.337Z,993.69
2022-08-14T10:01:35.318Z,993.71
2022-08-14T10:02:35.349Z,993.71
2022-08-14T10:03:35.307Z,993.72
2022-08-14T10:04:38.386Z,993.71
2022-08-14T10:05:39.122Z,993.72
2022-08-14T10:06:35.278Z,993.70
2022-08-14T10:07:35.262Z,993.69
2022-08-14T10:08:35.275Z,993.65
2022-08-14T10:09:35.478Z,993.63
2022-08-14T10:10:35.222Z,993.59
2022-08-14T10:11:35.569Z,993.53
2022-08-14T10:12:35.280Z,993.61
2022-08-14T10:13:42.878Z,993.54
2022-08-14T10:14:37.083Z,993.51
2022-08-14T10:15:35.138Z,993.49
2022-08-14T10:16:35.175Z,993.46
2022-08-14T10:17:38.878Z,993.44
2022-08-14T10:18:35.090Z,993.47
2022-08-14T10:19:35.654Z,993.42
2022-08-14T10:20:41.095Z,993.40
2022-08-14T10:21:38.668Z,993.37
2022-08-14T10:23:15.098Z,993.38
2022-08-14T10:23:36.013Z,993.37
2022-08-14T10:24:37.442Z,993.35
2022-08-14T10:25:34.991Z,993.30
2022-08-14T10:26:35.000Z,993.31
2022-08-14T10:27:34.971Z,993.31
2022-08-14T10:29:03.832Z,993.31
2022-08-14T10:29:36.057Z,993.31
2022-08-14T10:30:34.933Z,993.23
2022-08-14T10:31:44.744Z,993.21
2022-08-14T10:32:39.922Z,993.20
2022-08-14T10:33:35.883Z,993.23
2022-08-14T10:34:36.561Z,993.24
2022-08-14T10:35:34.880Z,993.25
2022-08-14T10:36:40.740Z,993.22
2022-08-14T10:37:35.834Z,993.20
2022-08-14T10:38:34.844Z,993.19
2022-08-14T10:39:34.924Z,993.16
2022-08-14T10:40:37.884Z,993.16
2022-08-14T10:41:34.785Z,993.15
2022-08-14T10:42:35.818Z,993.11
2022-08-14T10:43:34.794Z,993.09
2022-08-14T10:44:34.777Z,993.09
2022-08-14T10:45:35.733Z,993.03
2022-08-14T10:47:39.164Z,993.03
2022-08-14T10:47:40.917Z,992.99
2022-08-14T10:48:43.408Z,992.95
2022-08-14T10:49:35.696Z,992.96
2022-08-14T10:50:34.676Z,992.96
2022-08-14T10:51:36.280Z,992.99
2022-08-14T10:52:35.709Z,992.96
2022-08-14T10:53:34.627Z,992.99
2022-08-14T10:54:36.149Z,992.99
2022-08-14T10:55:35.597Z,993.01
2022-08-14T10:56:35.106Z,992.97
2022-08-14T10:57:34.616Z,992.96
2022-08-14T10:58:34.577Z,992.97
2022-08-14T10:59:37.304Z,992.92
2022-08-14T11:00:36.017Z,992.97
2022-08-14T11:01:41.488Z,993.01
2022-08-14T11:02:45.192Z,992.98
2022-08-14T11:03:55.192Z,993.00
2022-08-14T11:04:35.519Z,993.03
2022-08-14T11:05:34.473Z,993.04
2022-08-14T11:06:34.461Z,992.98
2022-08-14T11:07:34.449Z,992.96
2022-08-14T11:08:34.453Z,992.97
2022-08-14T11:09:34.443Z,992.96
2022-08-14T11:10:34.420Z,992.96
2022-08-14T11:11:35.994Z,992.93
2022-08-14T11:12:40.410Z,992.93
2022-08-14T11:13:35.359Z,992.90
2022-08-14T11:14:34.377Z,992.92
2022-08-14T11:15:34.328Z,992.92
2022-08-14T11:16:34.328Z,992.89
2022-08-14T11:17:34.332Z,992.87
2022-08-14T11:18:36.222Z,992.83
2022-08-14T11:19:35.291Z,992.76
2022-08-14T11:20:34.272Z,992.76
2022-08-14T11:21:34.463Z,992.69
2022-08-14T11:22:55.729Z,992.70
2022-08-14T11:23:37.925Z,992.72
2022-08-14T11:24:50.739Z,992.60
2022-08-14T11:25:43.588Z,992.63
2022-08-14T11:26:36.096Z,992.59
2022-08-14T11:27:35.296Z,992.59
2022-08-14T11:28:46.906Z,992.59
2022-08-14T11:29:36.158Z,992.57
2022-08-14T11:30:51.550Z,992.59
2022-08-14T11:31:38.712Z,992.59
2022-08-14T11:32:34.113Z,992.59
2022-08-14T11:33:34.096Z,992.55
2022-08-14T11:34:34.912Z,992.61
2022-08-14T11:35:36.929Z,992.58
2022-08-14T11:37:02.494Z,992.58
2022-08-14T11:37:40.618Z,992.57
2022-08-14T11:38:35.026Z,992.55
2022-08-14T11:39:36.591Z,992.48
2022-08-14T11:40:34.006Z,992.45
2022-08-14T11:41:34.006Z,992.43
2022-08-14T11:42:57.999Z,992.40
2022-08-14T11:43:34.966Z,992.37
2022-08-14T11:44:45.814Z,992.37
2022-08-14T11:45:37.203Z,992.35
2022-08-14T11:46:37.401Z,992.35
2022-08-14T11:47:35.354Z,992.34
2022-08-14T11:48:59.709Z,992.35
2022-08-14T11:49:35.330Z,992.31
2022-08-14T11:50:37.855Z,992.27
2022-08-14T11:51:50.710Z,992.28
2022-08-14T11:52:34.907Z,992.21
2022-08-14T11:53:34.839Z,992.14
2022-08-14T11:54:34.641Z,992.10
2022-08-14T11:55:33.809Z,992.09
2022-08-14T11:56:33.787Z,992.06
2022-08-14T11:57:33.818Z,991.98
2022-08-14T11:58:33.802Z,991.96
2022-08-14T11:59:34.176Z,991.96
2022-08-14T12:00:39.542Z,992.00
2022-08-14T12:01:38.134Z,991.95
2022-08-14T12:03:00.706Z,992.04
2022-08-14T12:03:45.944Z,992.04
2022-08-14T12:04:34.731Z,991.99
2022-08-14T12:05:33.731Z,992.00
2022-08-14T12:06:39.647Z,992.00
2022-08-14T12:07:34.781Z,991.97
2022-08-14T12:08:33.633Z,991.95
2022-08-14T12:09:33.632Z,991.98
2022-08-14T12:10:37.942Z,991.99
2022-08-14T12:11:34.602Z,991.99
2022-08-14T12:12:47.221Z,991.98
2022-08-14T12:13:34.757Z,991.95
2022-08-14T12:14:35.416Z,991.91
2022-08-14T12:15:33.674Z,991.89
2022-08-14T12:16:33.543Z,991.90
2022-08-14T12:17:38.164Z,991.85
2022-08-14T12:18:34.515Z,991.81
2022-08-14T12:19:35.053Z,991.79
2022-08-14T12:20:33.501Z,991.79
2022-08-14T12:21:33.465Z,991.79
2022-08-14T12:22:33.452Z,991.82
2022-08-14T12:23:33.434Z,991.76
2022-08-14T12:24:36.808Z,991.79
2022-08-14T12:25:34.875Z,991.72
2022-08-14T12:26:40.734Z,991.75
2022-08-14T12:27:34.418Z,991.76
2022-08-14T12:28:59.780Z,991.73